Google Maps JavaScript API Example
Pilot Flight Report # 94083 Submitted by : AST106 on 2020-05-29
Date: 2020-05-29Aircraft: ATR 72-500
Flight No.: ASC2509Distance (Nm): 208.88
Departure: TJSJ - Luis Munoz Marin InternationalDestination: MDSD - Las Americas Dr J F Pena Gome
 TimeFuelWeightSpeeds  
Out (Taxi)0604Z15723 lbs92592 lbs Flight RulesIFR
Off (Takeoff)0607Z 92267 lbs145 ktsFlight LevelFL201
On (Landing)0706Z 87323 lbs122 ktsVSTD-343 ft/min
In (Ramp)0710Z10183 lbs87051 lbs ZFW76863 lbs
Flight1.00  -  0:594945 lbs  Pax0
Block1.10  -  1:065540 lbs  Cargo0
Departure WeatherTJSJ 290604Z 1030917KT 20SM FEW016 SCT037 31/23 A2998
Destination WeatherMDSD 290710Z 20108KT 19SM BKN073 FEW262 30/25 A2994
Flight Comments